sensor_id;sensor_type;location;lat;lon;timestamp;P1;durP1;ratioP1;P2;durP2;ratioP2
73680;SDS011;61979;53.536;8.082;2022-08-01T00:00:59;11.73;;;7.57;;
73680;SDS011;61979;53.536;8.082;2022-08-01T00:02:00;8.90;;;7.18;;
73680;SDS011;61979;53.536;8.082;2022-08-01T00:03:00;9.52;;;6.63;;
73680;SDS011;61979;53.536;8.082;2022-08-01T00:04:01;11.02;;;6.78;;
73680;SDS011;61979;53.536;8.082;2022-08-01T00:05:01;13.25;;;6.20;;
73680;SDS011;61979;53.536;8.082;2022-08-01T00:06:02;9.95;;;7.90;;
73680;SDS011;61979;53.536;8.082;2022-08-01T00:07:02;9.73;;;7.38;;
73680;SDS011;61979;53.536;8.082;2022-08-01T00:08:03;11.48;;;7.40;;
73680;SDS011;61979;53.536;8.082;2022-08-01T00:09:04;17.15;;;7.97;;
73680;SDS011;61979;53.536;8.082;2022-08-01T00:10:05;7.63;;;6.93;;
73680;SDS011;61979;53.536;8.082;2022-08-01T00:11:11;8.48;;;7.57;;
73680;SDS011;61979;53.536;8.082;2022-08-01T00:12:11;11.27;;;8.25;;
73680;SDS011;61979;53.536;8.082;2022-08-01T00:13:12;15.90;;;8.10;;
73680;SDS011;61979;53.536;8.082;2022-08-01T00:14:12;9.48;;;7.65;;
73680;SDS011;61979;53.536;8.082;2022-08-01T00:15:14;8.80;;;7.47;;
73680;SDS011;61979;53.536;8.082;2022-08-01T00:16:15;10.00;;;7.65;;
73680;SDS011;61979;53.536;8.082;2022-08-01T00:17:16;12.85;;;7.38;;
73680;SDS011;61979;53.536;8.082;2022-08-01T00:18:16;12.05;;;7.60;;
73680;SDS011;61979;53.536;8.082;2022-08-01T00:19:17;8.20;;;7.32;;
73680;SDS011;61979;53.536;8.082;2022-08-01T00:20:17;8.10;;;7.22;;
73680;SDS011;61979;53.536;8.082;2022-08-01T00:21:17;8.55;;;7.00;;
73680;SDS011;61979;53.536;8.082;2022-08-01T00:22:18;9.65;;;7.68;;
73680;SDS011;61979;53.536;8.082;2022-08-01T00:23:18;8.70;;;7.25;;
73680;SDS011;61979;53.536;8.082;2022-08-01T00:24:19;9.40;;;6.93;;
73680;SDS011;61979;53.536;8.082;2022-08-01T00:25:19;9.05;;;7.20;;
73680;SDS011;61979;53.536;8.082;2022-08-01T00:26:19;6.50;;;5.80;;
73680;SDS011;61979;53.536;8.082;2022-08-01T00:27:20;8.93;;;6.68;;
73680;SDS011;61979;53.536;8.082;2022-08-01T00:28:20;7.93;;;6.55;;
73680;SDS011;61979;53.536;8.082;2022-08-01T00:29:21;7.88;;;6.60;;
73680;SDS011;61979;53.536;8.082;2022-08-01T00:30:21;10.70;;;6.97;;
73680;SDS011;61979;53.536;8.082;2022-08-01T00:31:21;8.00;;;6.35;;
73680;SDS011;61979;53.536;8.082;2022-08-01T00:32:22;14.82;;;7.32;;
73680;SDS011;61979;53.536;8.082;2022-08-01T00:33:22;10.55;;;6.78;;
73680;SDS011;61979;53.536;8.082;2022-08-01T00:34:22;7.47;;;6.68;;
73680;SDS011;61979;53.536;8.082;2022-08-01T00:35:23;6.53;;;5.93;;
73680;SDS011;61979;53.536;8.082;2022-08-01T00:36:23;7.22;;;5.45;;
73680;SDS011;61979;53.536;8.082;2022-08-01T00:37:23;7.75;;;6.07;;
73680;SDS011;61979;53.536;8.082;2022-08-01T00:38:24;5.97;;;5.22;;
73680;SDS011;61979;53.536;8.082;2022-08-01T00:39:24;5.90;;;4.95;;
73680;SDS011;61979;53.536;8.082;2022-08-01T00:40:25;5.97;;;5.03;;
73680;SDS011;61979;53.536;8.082;2022-08-01T00:41:25;5.32;;;4.82;;
73680;SDS011;61979;53.536;8.082;2022-08-01T00:42:25;6.75;;;5.00;;
73680;SDS011;61979;53.536;8.082;2022-08-01T00:43:26;5.43;;;4.93;;
73680;SDS011;61979;53.536;8.082;2022-08-01T00:44:26;4.78;;;4.22;;
73680;SDS011;61979;53.536;8.082;2022-08-01T00:45:27;9.45;;;5.28;;
73680;SDS011;61979;53.536;8.082;2022-08-01T00:46:27;7.38;;;5.00;;
73680;SDS011;61979;53.536;8.082;2022-08-01T00:47:27;5.40;;;4.60;;
73680;SDS011;61979;53.536;8.082;2022-08-01T00:48:28;5.07;;;4.55;;
73680;SDS011;61979;53.536;8.082;2022-08-01T00:49:28;8.48;;;5.70;;
73680;SDS011;61979;53.536;8.082;2022-08-01T00:50:29;8.27;;;6.07;;
73680;SDS011;61979;53.536;8.082;2022-08-01T00:51:29;6.57;;;4.45;;
73680;SDS011;61979;53.536;8.082;2022-08-01T00:52:30;6.05;;;5.43;;
73680;SDS011;61979;53.536;8.082;2022-08-01T00:53:32;6.85;;;5.47;;
73680;SDS011;61979;53.536;8.082;2022-08-01T00:54:33;7.28;;;5.95;;
73680;SDS011;61979;53.536;8.082;2022-08-01T00:55:34;6.68;;;5.82;;
73680;SDS011;61979;53.536;8.082;2022-08-01T00:56:34;8.52;;;6.18;;
73680;SDS011;61979;53.536;8.082;2022-08-01T00:57:35;10.95;;;7.00;;
73680;SDS011;61979;53.536;8.082;2022-08-01T00:58:36;9.23;;;7.32;;
73680;SDS011;61979;53.536;8.082;2022-08-01T00:59:37;12.23;;;8.68;;
73680;SDS011;61979;53.536;8.082;2022-08-01T01:00:39;12.32;;;7.70;;
73680;SDS011;61979;53.536;8.082;2022-08-01T01:01:39;9.05;;;7.00;;
73680;SDS011;61979;53.536;8.082;2022-08-01T01:02:40;11.50;;;7.63;;
73680;SDS011;61979;53.536;8.082;2022-08-01T01:03:41;13.18;;;6.90;;
73680;SDS011;61979;53.536;8.082;2022-08-01T01:04:42;11.18;;;7.55;;
73680;SDS011;61979;53.536;8.082;2022-08-01T01:05:53;11.70;;;7.00;;
73680;SDS011;61979;53.536;8.082;2022-08-01T01:08:08;11.13;;;6.53;;
73680;SDS011;61979;53.536;8.082;2022-08-01T01:10:57;9.80;;;6.85;;
73680;SDS011;61979;53.536;8.082;2022-08-01T01:14:16;10.30;;;6.50;;
73680;SDS011;61979;53.536;8.082;2022-08-01T01:15:34;10.48;;;6.78;;
73680;SDS011;61979;53.536;8.082;2022-08-01T01:16:41;9.82;;;6.32;;
73680;SDS011;61979;53.536;8.082;2022-08-01T01:17:48;8.68;;;5.60;;
73680;SDS011;61979;53.536;8.082;2022-08-01T01:18:55;8.23;;;5.85;;
73680;SDS011;61979;53.536;8.082;2022-08-01T01:20:00;8.07;;;5.80;;
73680;SDS011;61979;53.536;8.082;2022-08-01T01:22:36;7.50;;;5.70;;
73680;SDS011;61979;53.536;8.082;2022-08-01T01:30:25;8.50;;;4.45;;
73680;SDS011;61979;53.536;8.082;2022-08-01T01:31:28;11.55;;;4.72;;
73680;SDS011;61979;53.536;8.082;2022-08-01T01:32:33;5.63;;;3.45;;
73680;SDS011;61979;53.536;8.082;2022-08-01T01:33:37;5.63;;;4.47;;
73680;SDS011;61979;53.536;8.082;2022-08-01T01:34:42;5.68;;;3.72;;
73680;SDS011;61979;53.536;8.082;2022-08-01T01:35:46;5.25;;;4.18;;
73680;SDS011;61979;53.536;8.082;2022-08-01T01:36:52;4.05;;;3.50;;
73680;SDS011;61979;53.536;8.082;2022-08-01T01:38:39;5.25;;;3.60;;
73680;SDS011;61979;53.536;8.082;2022-08-01T01:39:21;6.35;;;3.22;;
73680;SDS011;61979;53.536;8.082;2022-08-01T01:40:25;4.47;;;2.95;;
73680;SDS011;61979;53.536;8.082;2022-08-01T01:41:27;6.68;;;3.53;;
73680;SDS011;61979;53.536;8.082;2022-08-01T01:42:29;7.53;;;3.97;;
73680;SDS011;61979;53.536;8.082;2022-08-01T01:43:30;4.80;;;3.28;;
73680;SDS011;61979;53.536;8.082;2022-08-01T01:44:32;4.88;;;3.42;;
73680;SDS011;61979;53.536;8.082;2022-08-01T01:45:34;5.15;;;3.50;;
73680;SDS011;61979;53.536;8.082;2022-08-01T01:46:35;5.30;;;3.55;;
73680;SDS011;61979;53.536;8.082;2022-08-01T01:47:37;5.40;;;3.65;;
73680;SDS011;61979;53.536;8.082;2022-08-01T01:48:39;6.40;;;3.42;;
73680;SDS011;61979;53.536;8.082;2022-08-01T01:49:44;4.70;;;3.33;;
73680;SDS011;61979;53.536;8.082;2022-08-01T01:50:47;7.30;;;3.38;;
73680;SDS011;61979;53.536;8.082;2022-08-01T01:51:49;3.47;;;2.90;;
73680;SDS011;61979;53.536;8.082;2022-08-01T01:52:51;6.10;;;3.50;;
73680;SDS011;61979;53.536;8.082;2022-08-01T01:53:53;6.85;;;3.35;;
73680;SDS011;61979;53.536;8.082;2022-08-01T01:54:55;6.72;;;3.20;;
73680;SDS011;61979;53.536;8.082;2022-08-01T01:55:57;5.68;;;3.25;;
73680;SDS011;61979;53.536;8.082;2022-08-01T01:57:00;4.00;;;3.00;;
73680;SDS011;61979;53.536;8.082;2022-08-01T01:58:03;7.15;;;3.63;;
73680;SDS011;61979;53.536;8.082;2022-08-01T01:59:06;7.97;;;3.20;;
73680;SDS011;61979;53.536;8.082;2022-08-01T02:00:07;6.10;;;3.20;;
73680;SDS011;61979;53.536;8.082;2022-08-01T02:01:10;7.25;;;3.28;;
73680;SDS011;61979;53.536;8.082;2022-08-01T02:02:11;5.45;;;3.70;;
73680;SDS011;61979;53.536;8.082;2022-08-01T02:03:14;4.55;;;3.47;;
73680;SDS011;61979;53.536;8.082;2022-08-01T02:04:16;8.52;;;2.72;;
73680;SDS011;61979;53.536;8.082;2022-08-01T02:05:16;8.27;;;3.22;;
73680;SDS011;61979;53.536;8.082;2022-08-01T02:06:18;4.63;;;3.28;;
73680;SDS011;61979;53.536;8.082;2022-08-01T02:07:21;3.80;;;3.30;;
73680;SDS011;61979;53.536;8.082;2022-08-01T02:08:23;5.05;;;3.22;;
73680;SDS011;61979;53.536;8.082;2022-08-01T02:09:26;4.97;;;3.22;;
73680;SDS011;61979;53.536;8.082;2022-08-01T02:10:28;5.07;;;3.00;;
73680;SDS011;61979;53.536;8.082;2022-08-01T02:11:31;5.63;;;3.47;;
73680;SDS011;61979;53.536;8.082;2022-08-01T02:12:33;4.53;;;3.33;;
73680;SDS011;61979;53.536;8.082;2022-08-01T02:13:38;9.02;;;3.70;;
73680;SDS011;61979;53.536;8.082;2022-08-01T02:14:40;6.55;;;3.53;;
73680;SDS011;61979;53.536;8.082;2022-08-01T02:15:44;8.77;;;3.63;;
73680;SDS011;61979;53.536;8.082;2022-08-01T02:16:47;4.80;;;3.30;;
73680;SDS011;61979;53.536;8.082;2022-08-01T02:17:49;5.10;;;3.67;;
73680;SDS011;61979;53.536;8.082;2022-08-01T02:18:51;5.05;;;3.10;;
73680;SDS011;61979;53.536;8.082;2022-08-01T02:19:52;6.10;;;3.20;;
73680;SDS011;61979;53.536;8.082;2022-08-01T02:20:54;8.35;;;3.45;;
73680;SDS011;61979;53.536;8.082;2022-08-01T02:22:01;3.03;;;2.72;;
73680;SDS011;61979;53.536;8.082;2022-08-01T02:23:06;2.92;;;2.55;;
73680;SDS011;61979;53.536;8.082;2022-08-01T02:25:24;5.45;;;2.72;;
73680;SDS011;61979;53.536;8.082;2022-08-01T02:26:27;6.72;;;2.80;;
73680;SDS011;61979;53.536;8.082;2022-08-01T02:27:29;4.05;;;2.10;;
73680;SDS011;61979;53.536;8.082;2022-08-01T02:28:36;6.57;;;2.50;;
73680;SDS011;61979;53.536;8.082;2022-08-01T02:29:42;6.05;;;2.08;;
73680;SDS011;61979;53.536;8.082;2022-08-01T02:30:47;5.05;;;2.47;;
73680;SDS011;61979;53.536;8.082;2022-08-01T02:31:49;3.15;;;2.47;;
73680;SDS011;61979;53.536;8.082;2022-08-01T02:32:58;6.97;;;2.13;;
73680;SDS011;61979;53.536;8.082;2022-08-01T02:34:03;6.70;;;2.10;;
73680;SDS011;61979;53.536;8.082;2022-08-01T02:35:07;5.30;;;2.30;;
73680;SDS011;61979;53.536;8.082;2022-08-01T02:36:13;4.10;;;1.90;;
73680;SDS011;61979;53.536;8.082;2022-08-01T02:37:16;6.70;;;2.00;;
73680;SDS011;61979;53.536;8.082;2022-08-01T02:38:19;5.38;;;2.00;;
73680;SDS011;61979;53.536;8.082;2022-08-01T02:39:22;5.25;;;2.00;;
73680;SDS011;61979;53.536;8.082;2022-08-01T02:40:26;5.70;;;2.00;;
73680;SDS011;61979;53.536;8.082;2022-08-01T02:41:33;6.90;;;2.28;;
73680;SDS011;61979;53.536;8.082;2022-08-01T02:42:35;7.53;;;1.90;;
73680;SDS011;61979;53.536;8.082;2022-08-01T02:43:40;5.50;;;1.88;;
73680;SDS011;61979;53.536;8.082;2022-08-01T02:44:46;5.43;;;1.92;;
73680;SDS011;61979;53.536;8.082;2022-08-01T02:45:53;8.60;;;2.00;;
73680;SDS011;61979;53.536;8.082;2022-08-01T02:46:57;5.57;;;2.03;;
73680;SDS011;61979;53.536;8.082;2022-08-01T02:48:05;5.32;;;2.00;;
73680;SDS011;61979;53.536;8.082;2022-08-01T02:49:11;6.90;;;1.92;;
73680;SDS011;61979;53.536;8.082;2022-08-01T02:50:13;4.88;;;2.03;;
73680;SDS011;61979;53.536;8.082;2022-08-01T02:51:16;7.05;;;2.03;;
73680;SDS011;61979;53.536;8.082;2022-08-01T02:52:20;8.90;;;2.33;;
73680;SDS011;61979;53.536;8.082;2022-08-01T02:53:23;5.20;;;2.10;;
73680;SDS011;61979;53.536;8.082;2022-08-01T02:54:26;5.80;;;1.80;;
73680;SDS011;61979;53.536;8.082;2022-08-01T02:55:29;7.90;;;2.35;;
73680;SDS011;61979;53.536;8.082;2022-08-01T02:56:32;8.73;;;2.28;;
73680;SDS011;61979;53.536;8.082;2022-08-01T02:57:37;5.82;;;2.22;;
73680;SDS011;61979;53.536;8.082;2022-08-01T02:58:39;8.45;;;2.40;;
73680;SDS011;61979;53.536;8.082;2022-08-01T02:59:43;7.70;;;2.30;;
73680;SDS011;61979;53.536;8.082;2022-08-01T03:00:45;11.82;;;2.72;;
73680;SDS011;61979;53.536;8.082;2022-08-01T03:01:46;7.60;;;2.60;;
73680;SDS011;61979;53.536;8.082;2022-08-01T03:02:47;6.88;;;2.25;;
73680;SDS011;61979;53.536;8.082;2022-08-01T03:03:50;5.20;;;2.17;;
73680;SDS011;61979;53.536;8.082;2022-08-01T03:04:51;9.63;;;2.10;;
73680;SDS011;61979;53.536;8.082;2022-08-01T03:05:53;7.97;;;2.25;;
73680;SDS011;61979;53.536;8.082;2022-08-01T03:06:54;7.57;;;2.70;;
73680;SDS011;61979;53.536;8.082;2022-08-01T03:07:58;9.75;;;2.63;;
73680;SDS011;61979;53.536;8.082;2022-08-01T03:09:01;9.93;;;2.60;;
73680;SDS011;61979;53.536;8.082;2022-08-01T03:10:04;7.38;;;2.33;;
73680;SDS011;61979;53.536;8.082;2022-08-01T03:11:05;11.38;;;2.30;;
73680;SDS011;61979;53.536;8.082;2022-08-01T03:12:13;8.23;;;2.22;;
73680;SDS011;61979;53.536;8.082;2022-08-01T03:13:16;9.10;;;2.47;;
73680;SDS011;61979;53.536;8.082;2022-08-01T03:14:18;9.93;;;2.47;;
73680;SDS011;61979;53.536;8.082;2022-08-01T03:15:23;8.65;;;2.83;;
73680;SDS011;61979;53.536;8.082;2022-08-01T03:16:26;10.02;;;2.60;;
73680;SDS011;61979;53.536;8.082;2022-08-01T03:17:28;7.03;;;2.60;;
73680;SDS011;61979;53.536;8.082;2022-08-01T03:18:29;9.95;;;2.90;;
73680;SDS011;61979;53.536;8.082;2022-08-01T03:19:30;11.43;;;3.17;;
73680;SDS011;61979;53.536;8.082;2022-08-01T03:20:34;11.02;;;2.90;;
73680;SDS011;61979;53.536;8.082;2022-08-01T03:21:35;8.32;;;2.50;;
73680;SDS011;61979;53.536;8.082;2022-08-01T03:22:38;8.95;;;2.83;;
73680;SDS011;61979;53.536;8.082;2022-08-01T03:23:40;12.90;;;2.92;;
73680;SDS011;61979;53.536;8.082;2022-08-01T03:24:42;8.93;;;3.05;;
73680;SDS011;61979;53.536;8.082;2022-08-01T03:25:46;11.32;;;2.67;;
73680;SDS011;61979;53.536;8.082;2022-08-01T03:26:49;8.68;;;2.75;;
73680;SDS011;61979;53.536;8.082;2022-08-01T03:27:54;8.70;;;3.00;;
73680;SDS011;61979;53.536;8.082;2022-08-01T03:28:57;10.10;;;2.80;;
73680;SDS011;61979;53.536;8.082;2022-08-01T03:30:02;9.55;;;2.92;;
73680;SDS011;61979;53.536;8.082;2022-08-01T03:31:05;14.27;;;3.20;;
73680;SDS011;61979;53.536;8.082;2022-08-01T03:32:05;8.90;;;3.05;;
73680;SDS011;61979;53.536;8.082;2022-08-01T03:33:06;10.48;;;3.60;;
73680;SDS011;61979;53.536;8.082;2022-08-01T03:34:06;10.60;;;3.30;;
73680;SDS011;61979;53.536;8.082;2022-08-01T03:35:07;11.30;;;3.25;;
73680;SDS011;61979;53.536;8.082;2022-08-01T03:36:08;12.18;;;3.40;;
73680;SDS011;61979;53.536;8.082;2022-08-01T03:38:29;10.15;;;3.97;;
73680;SDS011;61979;53.536;8.082;2022-08-01T03:39:34;9.00;;;3.13;;
73680;SDS011;61979;53.536;8.082;2022-08-01T03:40:40;9.02;;;3.03;;
73680;SDS011;61979;53.536;8.082;2022-08-01T03:41:54;12.80;;;3.33;;
73680;SDS011;61979;53.536;8.082;2022-08-01T03:43:17;11.18;;;2.88;;
73680;SDS011;61979;53.536;8.082;2022-08-01T03:44:37;15.07;;;3.35;;
73680;SDS011;61979;53.536;8.082;2022-08-01T03:45:41;14.05;;;3.47;;
73680;SDS011;61979;53.536;8.082;2022-08-01T03:46:52;23.30;;;3.80;;
73680;SDS011;61979;53.536;8.082;2022-08-01T03:48:01;15.95;;;3.40;;
73680;SDS011;61979;53.536;8.082;2022-08-01T03:49:07;11.35;;;3.40;;
73680;SDS011;61979;53.536;8.082;2022-08-01T03:50:13;17.55;;;3.47;;
73680;SDS011;61979;53.536;8.082;2022-08-01T03:51:14;14.45;;;3.50;;
73680;SDS011;61979;53.536;8.082;2022-08-01T03:52:17;11.13;;;3.10;;
73680;SDS011;61979;53.536;8.082;2022-08-01T03:53:20;18.73;;;3.85;;
73680;SDS011;61979;53.536;8.082;2022-08-01T03:54:24;11.90;;;3.60;;
73680;SDS011;61979;53.536;8.082;2022-08-01T03:55:30;12.73;;;3.20;;
73680;SDS011;61979;53.536;8.082;2022-08-01T03:56:33;15.40;;;3.38;;
73680;SDS011;61979;53.536;8.082;2022-08-01T03:57:34;10.48;;;3.22;;
73680;SDS011;61979;53.536;8.082;2022-08-01T03:58:36;11.98;;;3.55;;
73680;SDS011;61979;53.536;8.082;2022-08-01T03:59:39;13.88;;;3.22;;
73680;SDS011;61979;53.536;8.082;2022-08-01T04:00:41;10.98;;;3.40;;
73680;SDS011;61979;53.536;8.082;2022-08-01T04:01:42;13.05;;;3.13;;
73680;SDS011;61979;53.536;8.082;2022-08-01T04:02:45;11.48;;;2.97;;
73680;SDS011;61979;53.536;8.082;2022-08-01T04:03:47;13.45;;;3.30;;
73680;SDS011;61979;53.536;8.082;2022-08-01T04:04:47;8.32;;;3.60;;
73680;SDS011;61979;53.536;8.082;2022-08-01T04:05:48;14.88;;;3.63;;
73680;SDS011;61979;53.536;8.082;2022-08-01T04:06:49;10.88;;;3.38;;
73680;SDS011;61979;53.536;8.082;2022-08-01T04:07:53;14.65;;;3.35;;
73680;SDS011;61979;53.536;8.082;2022-08-01T04:08:56;10.98;;;2.90;;
73680;SDS011;61979;53.536;8.082;2022-08-01T04:09:57;14.80;;;3.40;;
73680;SDS011;61979;53.536;8.082;2022-08-01T04:10:58;17.52;;;3.42;;
73680;SDS011;61979;53.536;8.082;2022-08-01T04:11:59;11.35;;;2.97;;
73680;SDS011;61979;53.536;8.082;2022-08-01T04:13:00;15.05;;;3.30;;
73680;SDS011;61979;53.536;8.082;2022-08-01T04:14:00;7.50;;;2.80;;
73680;SDS011;61979;53.536;8.082;2022-08-01T04:15:01;11.23;;;3.25;;
73680;SDS011;61979;53.536;8.082;2022-08-01T04:16:01;14.68;;;2.78;;
73680;SDS011;61979;53.536;8.082;2022-08-01T04:17:02;10.05;;;2.80;;
73680;SDS011;61979;53.536;8.082;2022-08-01T04:18:02;12.40;;;2.67;;
73680;SDS011;61979;53.536;8.082;2022-08-01T04:19:02;12.55;;;3.15;;
73680;SDS011;61979;53.536;8.082;2022-08-01T04:20:03;13.00;;;3.17;;
73680;SDS011;61979;53.536;8.082;2022-08-01T04:21:04;16.73;;;3.10;;
73680;SDS011;61979;53.536;8.082;2022-08-01T04:22:04;10.10;;;2.97;;
73680;SDS011;61979;53.536;8.082;2022-08-01T04:23:04;13.02;;;3.03;;
73680;SDS011;61979;53.536;8.082;2022-08-01T04:24:07;12.65;;;3.17;;
73680;SDS011;61979;53.536;8.082;2022-08-01T04:25:32;10.25;;;2.83;;
73680;SDS011;61979;53.536;8.082;2022-08-01T04:26:34;13.00;;;2.78;;
73680;SDS011;61979;53.536;8.082;2022-08-01T04:27:38;13.85;;;3.28;;
73680;SDS011;61979;53.536;8.082;2022-08-01T04:28:42;12.95;;;2.90;;
73680;SDS011;61979;53.536;8.082;2022-08-01T04:29:45;11.60;;;3.00;;
73680;SDS011;61979;53.536;8.082;2022-08-01T04:30:47;18.95;;;3.85;;
73680;SDS011;61979;53.536;8.082;2022-08-01T04:31:50;13.95;;;3.35;;
73680;SDS011;61979;53.536;8.082;2022-08-01T04:32:55;13.35;;;3.05;;
73680;SDS011;61979;53.536;8.082;2022-08-01T04:33:57;11.73;;;3.53;;
73680;SDS011;61979;53.536;8.082;2022-08-01T04:34:59;11.10;;;3.22;;
73680;SDS011;61979;53.536;8.082;2022-08-01T04:36:02;9.32;;;3.00;;
73680;SDS011;61979;53.536;8.082;2022-08-01T04:37:04;11.85;;;3.20;;
73680;SDS011;61979;53.536;8.082;2022-08-01T04:38:08;10.00;;;2.85;;
73680;SDS011;61979;53.536;8.082;2022-08-01T04:39:10;18.30;;;3.50;;
73680;SDS011;61979;53.536;8.082;2022-08-01T04:40:11;12.15;;;3.30;;
73680;SDS011;61979;53.536;8.082;2022-08-01T04:41:13;13.30;;;3.25;;
73680;SDS011;61979;53.536;8.082;2022-08-01T04:42:14;13.75;;;3.95;;
73680;SDS011;61979;53.536;8.082;2022-08-01T04:43:15;14.45;;;3.40;;
73680;SDS011;61979;53.536;8.082;2022-08-01T04:44:16;9.57;;;3.17;;
73680;SDS011;61979;53.536;8.082;2022-08-01T04:45:16;13.95;;;3.20;;
73680;SDS011;61979;53.536;8.082;2022-08-01T04:46:17;12.23;;;3.55;;
73680;SDS011;61979;53.536;8.082;2022-08-01T04:47:19;12.10;;;3.10;;
73680;SDS011;61979;53.536;8.082;2022-08-01T04:48:20;14.20;;;3.42;;
73680;SDS011;61979;53.536;8.082;2022-08-01T04:49:22;10.48;;;2.95;;
73680;SDS011;61979;53.536;8.082;2022-08-01T04:50:22;15.77;;;3.17;;
73680;SDS011;61979;53.536;8.082;2022-08-01T04:51:24;11.60;;;3.42;;
73680;SDS011;61979;53.536;8.082;2022-08-01T04:52:32;15.43;;;3.78;;
73680;SDS011;61979;53.536;8.082;2022-08-01T04:53:36;12.82;;;3.25;;
73680;SDS011;61979;53.536;8.082;2022-08-01T04:54:36;17.05;;;3.30;;
73680;SDS011;61979;53.536;8.082;2022-08-01T04:55:36;14.27;;;3.63;;
73680;SDS011;61979;53.536;8.082;2022-08-01T04:56:37;20.30;;;3.47;;
73680;SDS011;61979;53.536;8.082;2022-08-01T04:57:39;17.48;;;3.75;;
73680;SDS011;61979;53.536;8.082;2022-08-01T04:58:41;14.88;;;3.65;;
73680;SDS011;61979;53.536;8.082;2022-08-01T04:59:43;19.38;;;3.70;;
73680;SDS011;61979;53.536;8.082;2022-08-01T05:00:44;18.95;;;4.03;;
73680;SDS011;61979;53.536;8.082;2022-08-01T05:01:47;16.80;;;4.10;;
73680;SDS011;61979;53.536;8.082;2022-08-01T05:02:48;12.77;;;3.90;;
73680;SDS011;61979;53.536;8.082;2022-08-01T05:03:49;16.02;;;3.67;;
73680;SDS011;61979;53.536;8.082;2022-08-01T05:04:49;15.18;;;3.65;;
73680;SDS011;61979;53.536;8.082;2022-08-01T05:05:49;12.55;;;3.45;;
73680;SDS011;61979;53.536;8.082;2022-08-01T05:06:50;16.20;;;3.55;;
73680;SDS011;61979;53.536;8.082;2022-08-01T05:07:50;16.45;;;4.00;;
73680;SDS011;61979;53.536;8.082;2022-08-01T05:08:50;13.07;;;3.28;;
73680;SDS011;61979;53.536;8.082;2022-08-01T05:09:51;18.80;;;3.60;;
73680;SDS011;61979;53.536;8.082;2022-08-01T05:10:51;13.10;;;3.58;;
73680;SDS011;61979;53.536;8.082;2022-08-01T05:11:52;16.65;;;3.58;;
73680;SDS011;61979;53.536;8.082;2022-08-01T05:12:53;13.45;;;3.60;;
73680;SDS011;61979;53.536;8.082;2022-08-01T05:13:53;11.98;;;3.13;;
73680;SDS011;61979;53.536;8.082;2022-08-01T05:14:54;13.48;;;3.60;;
73680;SDS011;61979;53.536;8.082;2022-08-01T05:15:54;15.82;;;3.80;;
73680;SDS011;61979;53.536;8.082;2022-08-01T05:16:55;14.80;;;3.58;;
73680;SDS011;61979;53.536;8.082;2022-08-01T05:17:56;14.27;;;3.28;;
73680;SDS011;61979;53.536;8.082;2022-08-01T05:18:56;16.70;;;3.05;;
73680;SDS011;61979;53.536;8.082;2022-08-01T05:19:56;13.23;;;3.42;;
73680;SDS011;61979;53.536;8.082;2022-08-01T05:20:57;20.83;;;3.70;;
73680;SDS011;61979;53.536;8.082;2022-08-01T05:21:58;16.05;;;3.47;;
73680;SDS011;61979;53.536;8.082;2022-08-01T05:23:00;13.35;;;3.38;;
73680;SDS011;61979;53.536;8.082;2022-08-01T05:24:00;15.10;;;3.60;;
73680;SDS011;61979;53.536;8.082;2022-08-01T05:25:02;12.77;;;3.50;;
73680;SDS011;61979;53.536;8.082;2022-08-01T05:26:04;18.50;;;3.78;;
73680;SDS011;61979;53.536;8.082;2022-08-01T05:27:05;21.08;;;3.78;;
73680;SDS011;61979;53.536;8.082;2022-08-01T05:28:07;18.05;;;3.75;;
73680;SDS011;61979;53.536;8.082;2022-08-01T05:29:08;13.38;;;3.15;;
73680;SDS011;61979;53.536;8.082;2022-08-01T05:30:08;44.20;;;26.58;;
73680;SDS011;61979;53.536;8.082;2022-08-01T05:31:09;16.15;;;6.22;;
73680;SDS011;61979;53.536;8.082;2022-08-01T05:32:10;21.42;;;4.95;;
73680;SDS011;61979;53.536;8.082;2022-08-01T05:33:11;22.52;;;8.82;;
73680;SDS011;61979;53.536;8.082;2022-08-01T05:34:11;15.82;;;5.43;;
73680;SDS011;61979;53.536;8.082;2022-08-01T05:35:11;19.33;;;5.40;;
73680;SDS011;61979;53.536;8.082;2022-08-01T05:36:12;20.45;;;6.80;;
73680;SDS011;61979;53.536;8.082;2022-08-01T05:37:12;23.60;;;10.98;;
73680;SDS011;61979;53.536;8.082;2022-08-01T05:38:12;19.42;;;5.57;;
73680;SDS011;61979;53.536;8.082;2022-08-01T05:39:13;22.13;;;8.27;;
73680;SDS011;61979;53.536;8.082;2022-08-01T05:40:14;19.38;;;5.95;;
73680;SDS011;61979;53.536;8.082;2022-08-01T05:41:14;21.50;;;8.02;;
73680;SDS011;61979;53.536;8.082;2022-08-01T05:42:14;22.08;;;8.98;;
73680;SDS011;61979;53.536;8.082;2022-08-01T05:43:15;20.05;;;6.07;;
73680;SDS011;61979;53.536;8.082;2022-08-01T05:44:15;23.23;;;4.80;;
73680;SDS011;61979;53.536;8.082;2022-08-01T05:45:16;20.98;;;4.78;;
73680;SDS011;61979;53.536;8.082;2022-08-01T05:46:16;13.88;;;6.40;;
73680;SDS011;61979;53.536;8.082;2022-08-01T05:47:16;23.38;;;8.85;;
73680;SDS011;61979;53.536;8.082;2022-08-01T05:48:17;17.98;;;6.22;;
73680;SDS011;61979;53.536;8.082;2022-08-01T05:49:17;16.83;;;6.85;;
73680;SDS011;61979;53.536;8.082;2022-08-01T05:50:18;18.40;;;7.13;;
73680;SDS011;61979;53.536;8.082;2022-08-01T05:51:18;19.02;;;5.75;;
73680;SDS011;61979;53.536;8.082;2022-08-01T05:52:18;30.40;;;17.17;;
73680;SDS011;61979;53.536;8.082;2022-08-01T05:53:19;28.75;;;9.50;;
73680;SDS011;61979;53.536;8.082;2022-08-01T05:54:19;17.92;;;7.65;;
73680;SDS011;61979;53.536;8.082;2022-08-01T05:55:19;16.58;;;4.22;;
73680;SDS011;61979;53.536;8.082;2022-08-01T05:56:20;16.20;;;5.32;;
73680;SDS011;61979;53.536;8.082;2022-08-01T05:57:21;25.00;;;5.03;;
73680;SDS011;61979;53.536;8.082;2022-08-01T05:58:22;18.80;;;5.78;;
73680;SDS011;61979;53.536;8.082;2022-08-01T05:59:22;16.95;;;3.35;;
73680;SDS011;61979;53.536;8.082;2022-08-01T06:00:22;13.65;;;3.58;;
73680;SDS011;61979;53.536;8.082;2022-08-01T06:01:23;21.67;;;5.63;;
73680;SDS011;61979;53.536;8.082;2022-08-01T06:02:23;22.15;;;4.63;;
73680;SDS011;61979;53.536;8.082;2022-08-01T06:03:23;15.02;;;5.88;;
73680;SDS011;61979;53.536;8.082;2022-08-01T06:04:24;18.23;;;5.60;;
73680;SDS011;61979;53.536;8.082;2022-08-01T06:05:24;21.17;;;4.90;;
73680;SDS011;61979;53.536;8.082;2022-08-01T06:06:25;14.45;;;4.95;;
73680;SDS011;61979;53.536;8.082;2022-08-01T06:07:25;17.30;;;5.15;;
73680;SDS011;61979;53.536;8.082;2022-08-01T06:08:27;13.77;;;3.83;;
73680;SDS011;61979;53.536;8.082;2022-08-01T06:09:28;19.90;;;5.00;;
73680;SDS011;61979;53.536;8.082;2022-08-01T06:10:28;19.42;;;4.13;;
73680;SDS011;61979;53.536;8.082;2022-08-01T06:11:29;14.10;;;4.25;;
73680;SDS011;61979;53.536;8.082;2022-08-01T06:12:32;22.77;;;4.63;;
73680;SDS011;61979;53.536;8.082;2022-08-01T06:13:32;19.05;;;4.00;;
73680;SDS011;61979;53.536;8.082;2022-08-01T06:14:33;20.33;;;4.80;;
73680;SDS011;61979;53.536;8.082;2022-08-01T06:15:33;19.00;;;4.35;;
73680;SDS011;61979;53.536;8.082;2022-08-01T06:16:34;22.48;;;6.75;;
73680;SDS011;61979;53.536;8.082;2022-08-01T06:17:34;19.08;;;7.57;;
73680;SDS011;61979;53.536;8.082;2022-08-01T06:18:35;18.80;;;7.78;;
73680;SDS011;61979;53.536;8.082;2022-08-01T06:19:35;17.23;;;6.65;;
73680;SDS011;61979;53.536;8.082;2022-08-01T06:20:35;19.23;;;4.90;;
73680;SDS011;61979;53.536;8.082;2022-08-01T06:21:36;15.48;;;5.78;;
73680;SDS011;61979;53.536;8.082;2022-08-01T06:22:36;51.00;;;32.50;;
73680;SDS011;61979;53.536;8.082;2022-08-01T06:23:36;40.00;;;23.08;;
73680;SDS011;61979;53.536;8.082;2022-08-01T06:24:37;22.52;;;8.50;;
73680;SDS011;61979;53.536;8.082;2022-08-01T06:25:37;33.75;;;18.10;;
73680;SDS011;61979;53.536;8.082;2022-08-01T06:26:38;28.25;;;13.75;;
73680;SDS011;61979;53.536;8.082;2022-08-01T06:27:38;18.20;;;3.97;;
73680;SDS011;61979;53.536;8.082;2022-08-01T06:28:38;38.90;;;19.77;;